Time;durP1;ratioP1;P1;durP2;ratioP2;P2;SDS_P1;SDS_P2;PMS_P1;PMS_P2;Temp;Humidity;BMP_temperature;BMP_pressure;BME280_temperature;BME280_humidity;BME280_pressure;Samples;Min_cycle;Max_cycle;Signal;HPM_P1;HPM_P2
2024/01/27 00:02:19;;;;;;;20.50;2.70;;;;;;;4.98;100.00;100905.92;220667;1264;140077;-85
2024/01/27 00:07:19;;;;;;;20.00;3.30;;;;;;;4.97;100.00;100913.77;220818;1265;138674;-88
2024/01/27 00:12:20;;;;;;;14.50;2.90;;;;;;;4.97;100.00;100927.00;220457;1264;140481;-87
2024/01/27 00:17:23;;;;;;;18.70;2.90;;;;;;;4.96;100.00;100932.49;221134;1264;138604;-86
2024/01/27 00:22:24;;;;;;;14.90;2.80;;;;;;;4.96;100.00;100936.61;220786;1263;139942;-86
2024/01/27 00:27:24;;;;;;;17.20;2.90;;;;;;;4.94;100.00;100939.35;221411;1264;97718;-91
2024/01/27 00:32:25;;;;;;;17.30;3.30;;;;;;;4.94;100.00;100943.13;220719;1264;139308;-86
2024/01/27 00:37:25;;;;;;;20.10;3.10;;;;;;;4.92;100.00;100945.25;221198;1266;138663;-87
2024/01/27 00:42:26;;;;;;;15.90;2.90;;;;;;;4.90;100.00;100953.29;220766;1264;139702;-86
2024/01/27 00:47:26;;;;;;;18.30;3.30;;;;;;;4.89;100.00;100955.63;221033;1264;139283;-84
2024/01/27 00:52:27;;;;;;;12.60;2.70;;;;;;;4.88;100.00;100963.63;221162;1267;140321;-88
2024/01/27 00:57:27;;;;;;;23.10;3.30;;;;;;;4.87;100.00;100966.39;222130;1264;96546;-85
2024/01/27 01:02:28;;;;;;;19.70;2.90;;;;;;;4.86;100.00;100972.09;220926;1264;139600;-86
2024/01/27 01:07:32;;;;;;;20.00;2.60;;;;;;;4.85;100.00;100976.18;221327;1264;138771;-87
2024/01/27 01:12:32;;;;;;;17.40;2.50;;;;;;;4.84;100.00;100975.05;220500;1264;139732;-86
2024/01/27 01:17:33;;;;;;;24.30;3.70;;;;;;;4.84;100.00;100973.19;221174;1264;138618;-87
2024/01/27 01:22:33;;;;;;;18.70;3.40;;;;;;;4.83;100.00;100978.45;220542;1267;139986;-86
2024/01/27 01:27:34;;;;;;;17.10;3.40;;;;;;;4.81;100.00;100980.55;221189;1264;97644;-86
2024/01/27 01:32:35;;;;;;;12.60;2.30;;;;;;;4.80;100.00;100980.36;220604;1265;139424;-87
2024/01/27 01:37:35;;;;;;;14.70;2.10;;;;;;;4.79;100.00;100983.40;221223;1266;139036;-89
2024/01/27 01:42:36;;;;;;;16.20;2.80;;;;;;;4.77;100.00;100985.27;220705;1266;139735;-85
2024/01/27 01:47:36;;;;;;;17.50;2.70;;;;;;;4.77;100.00;100985.95;221694;1268;138827;-86
2024/01/27 01:52:38;;;;;;;23.50;4.20;;;;;;;4.76;100.00;100990.12;220400;1264;140059;-91
2024/01/27 01:57:39;;;;;;;20.10;3.00;;;;;;;4.76;100.00;100996.11;221106;1266;97698;-87
2024/01/27 02:02:40;;;;;;;14.80;3.20;;;;;;;4.76;100.00;100992.23;220906;1264;139967;-86
2024/01/27 02:07:40;;;;;;;12.90;2.40;;;;;;;4.75;100.00;100997.44;221134;1264;139728;-87
2024/01/27 02:12:45;;;;;;;17.20;3.00;;;;;;;4.74;100.00;100993.17;220577;1264;140135;-86
2024/01/27 02:17:46;;;;;;;15.10;2.90;;;;;;;4.73;100.00;100990.01;220959;1265;139106;-87
2024/01/27 02:22:46;;;;;;;15.60;2.70;;;;;;;4.72;100.00;100992.77;220261;1265;139718;-87
2024/01/27 02:27:47;;;;;;;16.30;2.10;;;;;;;4.71;100.00;100990.94;220929;1264;97608;-86
2024/01/27 02:32:47;;;;;;;13.00;2.20;;;;;;;4.69;100.00;100991.39;220255;1266;139302;-85
2024/01/27 02:37:47;;;;;;;15.30;2.70;;;;;;;4.67;100.00;100994.83;221797;1264;138812;-86
2024/01/27 02:42:48;;;;;;;22.30;2.80;;;;;;;4.67;100.00;100996.84;221166;1264;139314;-87
2024/01/27 02:47:48;;;;;;;20.40;3.20;;;;;;;4.67;100.00;100997.88;220842;1266;138893;-86
2024/01/27 02:52:49;;;;;;;19.10;3.00;;;;;;;4.67;100.00;100996.20;220337;1264;139613;-87
2024/01/27 02:57:49;;;;;;;15.70;2.30;;;;;;;4.67;100.00;100997.46;221213;1265;96647;-87
2024/01/27 03:02:49;;;;;;;18.90;2.70;;;;;;;4.66;100.00;101000.82;220413;1266;139460;-86
2024/01/27 03:07:50;;;;;;;15.10;2.40;;;;;;;4.65;100.00;101001.27;221027;1266;139085;-87
2024/01/27 03:12:50;;;;;;;16.60;2.40;;;;;;;4.63;100.00;101000.64;220568;1265;140011;-85
2024/01/27 03:17:51;;;;;;;26.50;2.90;;;;;;;4.63;100.00;100995.04;221139;1266;139188;-84
2024/01/27 03:22:51;;;;;;;16.60;2.40;;;;;;;4.63;100.00;100999.08;220655;1266;139736;-87
2024/01/27 03:27:52;;;;;;;18.70;2.80;;;;;;;4.62;100.00;100994.34;221424;1266;97578;-87
2024/01/27 03:32:53;;;;;;;18.50;3.00;;;;;;;4.62;100.00;101000.63;220644;1266;139982;-86
2024/01/27 03:37:53;;;;;;;22.80;4.00;;;;;;;4.62;100.00;101003.88;221229;1264;138453;-87
2024/01/27 03:42:53;;;;;;;15.30;2.30;;;;;;;4.63;100.00;101008.81;220527;1267;139682;-86
2024/01/27 03:47:54;;;;;;;16.90;2.40;;;;;;;4.63;100.00;101011.70;221145;1266;138650;-86
2024/01/27 03:52:54;;;;;;;20.00;2.60;;;;;;;4.62;100.00;101012.20;220609;1263;140668;-88
2024/01/27 03:57:55;;;;;;;18.80;2.70;;;;;;;4.61;100.00;101020.84;221217;1263;97370;-88
2024/01/27 04:02:55;;;;;;;22.90;3.30;;;;;;;4.58;100.00;101024.02;220459;1265;139677;-86
2024/01/27 04:07:56;;;;;;;18.60;3.20;;;;;;;4.58;100.00;101029.45;221175;1266;138486;-87
2024/01/27 04:12:56;;;;;;;15.90;2.70;;;;;;;4.58;100.00;101031.46;220635;1266;140060;-88
2024/01/27 04:17:57;;;;;;;15.30;2.70;;;;;;;4.58;100.00;101039.04;221264;1266;139218;-88
2024/01/27 04:22:57;;;;;;;15.50;2.50;;;;;;;4.56;100.00;101041.70;221711;1267;139506;-87
2024/01/27 04:27:58;;;;;;;21.50;2.80;;;;;;;4.55;100.00;101050.20;222171;1269;97681;-87
2024/01/27 04:32:59;;;;;;;31.20;3.00;;;;;;;4.54;100.00;101045.15;220830;1264;139716;-89
2024/01/27 04:37:59;;;;;;;16.30;2.20;;;;;;;4.52;100.00;101041.67;220978;1264;139288;-86
2024/01/27 04:42:59;;;;;;;18.20;2.90;;;;;;;4.52;100.00;101046.25;220649;1266;140292;-88
2024/01/27 04:48:01;;;;;;;22.00;3.70;;;;;;;4.52;100.00;101049.43;220907;1264;139010;-87
2024/01/27 04:53:02;;;;;;;22.60;3.70;;;;;;;4.51;100.00;101050.17;220493;1264;140293;-88
2024/01/27 04:58:02;;;;;;;19.90;2.90;;;;;;;4.50;100.00;101052.45;221378;1265;97273;-88
2024/01/27 05:03:04;;;;;;;18.30;2.80;;;;;;;4.50;100.00;101052.22;220623;1264;139799;-89
2024/01/27 05:08:04;;;;;;;17.00;2.80;;;;;;;4.51;100.00;101043.69;221442;1266;138555;-89
2024/01/27 05:13:05;;;;;;;19.10;2.60;;;;;;;4.49;100.00;101042.83;220612;1267;140158;-88
2024/01/27 05:18:05;;;;;;;14.80;2.60;;;;;;;4.48;100.00;101045.20;221172;1266;138878;-87
2024/01/27 05:23:06;;;;;;;18.20;2.70;;;;;;;4.47;100.00;101049.97;220657;1264;139963;-88
2024/01/27 05:28:07;;;;;;;14.50;2.50;;;;;;;4.44;100.00;101046.13;221234;1264;98068;-87
2024/01/27 05:33:07;;;;;;;20.70;2.90;;;;;;;4.42;100.00;101052.89;220514;1266;139372;-87
2024/01/27 05:38:08;;;;;;;19.40;2.70;;;;;;;4.44;100.00;101055.05;220885;1266;140708;-87
2024/01/27 05:43:09;;;;;;;14.90;2.40;;;;;;;4.43;100.00;101069.05;220226;1266;139533;-86
2024/01/27 05:48:09;;;;;;;18.90;2.60;;;;;;;4.41;100.00;101066.55;221063;1265;138790;-85
2024/01/27 05:53:10;;;;;;;14.40;2.80;;;;;;;4.41;100.00;101080.17;220380;1266;140286;-88
2024/01/27 05:58:10;;;;;;;14.30;2.50;;;;;;;4.40;100.00;101089.64;221021;1264;96750;-88
2024/01/27 06:03:11;;;;;;;19.00;3.20;;;;;;;4.40;100.00;101084.41;220624;1264;139324;-87
2024/01/27 06:08:12;;;;;;;17.90;3.70;;;;;;;4.40;100.00;101094.92;221851;1264;139413;-89
2024/01/27 06:13:12;;;;;;;21.40;3.20;;;;;;;4.40;100.00;101100.91;221426;1266;140414;-88
2024/01/27 06:18:13;;;;;;;16.00;2.60;;;;;;;4.40;100.00;101111.66;221277;1264;138971;-88
2024/01/27 06:23:13;;;;;;;15.60;3.70;;;;;;;4.39;100.00;101115.35;220834;1264;139855;-87
2024/01/27 06:28:14;;;;;;;13.00;2.40;;;;;;;4.38;100.00;101121.05;221332;1267;96936;-87
2024/01/27 06:33:14;;;;;;;22.10;3.40;;;;;;;4.36;100.00;101130.70;220604;1266;139480;-89
2024/01/27 06:38:15;;;;;;;20.60;3.80;;;;;;;4.36;100.00;101135.92;221032;1266;138970;-90
2024/01/27 06:43:15;;;;;;;15.40;2.80;;;;;;;4.37;100.00;101141.64;220602;1266;139437;-89
2024/01/27 06:48:16;;;;;;;17.30;3.20;;;;;;;4.37;100.00;101146.08;221096;1264;138964;-87
2024/01/27 06:53:18;;;;;;;19.50;3.10;;;;;;;4.38;100.00;101151.27;220284;1264;139714;-87
2024/01/27 06:58:18;;;;;;;18.10;3.10;;;;;;;4.40;100.00;101164.66;221165;1266;98915;-87
2024/01/27 07:03:19;;;;;;;19.40;3.50;;;;;;;4.42;100.00;101165.55;220600;1267;139625;-87
2024/01/27 07:08:20;;;;;;;20.60;3.80;;;;;;;4.44;100.00;101166.50;221166;1269;138732;-88
2024/01/27 07:13:20;;;;;;;19.90;3.20;;;;;;;4.46;100.00;101167.23;220519;1264;139983;-86
2024/01/27 07:18:22;;;;;;;19.90;3.20;;;;;;;4.49;100.00;101175.33;221294;1268;138802;-88
2024/01/27 07:23:22;;;;;;;16.00;2.90;;;;;;;4.52;100.00;101184.08;220672;1265;140236;-87
2024/01/27 07:28:22;;;;;;;20.60;3.50;;;;;;;4.56;100.00;101187.67;221276;1267;138970;-87
2024/01/27 07:33:23;;;;;;;19.30;3.10;;;;;;;4.59;100.00;101203.75;220753;1264;139389;-87
2024/01/27 07:38:23;;;;;;;15.60;3.40;;;;;;;4.62;100.00;101210.81;221272;1266;138538;-86
2024/01/27 07:43:26;;;;;;;17.70;3.70;;;;;;;4.65;100.00;101202.98;220890;1268;139905;-87
2024/01/27 07:48:26;;;;;;;22.50;3.60;;;;;;;4.66;100.00;101209.37;221513;1266;138935;-86
2024/01/27 07:53:27;;;;;;;24.50;5.30;;;;;;;4.68;100.00;101222.95;221833;1265;139721;-86
2024/01/27 07:58:28;;;;;;;20.20;3.80;;;;;;;4.70;100.00;101229.27;222030;1266;139643;-85
2024/01/27 08:03:28;;;;;;;16.70;4.10;;;;;;;4.72;100.00;101231.06;221046;1268;139922;-88
2024/01/27 08:08:29;;;;;;;14.90;3.50;;;;;;;4.75;100.00;101227.39;221588;1267;138980;-86
2024/01/27 08:13:30;;;;;;;21.60;3.70;;;;;;;4.78;100.00;101237.81;220775;1264;139891;-87
2024/01/27 08:18:31;;;;;;;18.00;3.30;;;;;;;4.81;100.00;101249.02;221443;1265;139227;-87
2024/01/27 08:23:32;;;;;;;19.90;3.90;;;;;;;4.83;100.00;101248.29;220797;1267;139047;-87
2024/01/27 08:28:32;;;;;;;23.90;3.40;;;;;;;4.84;100.00;101255.11;221497;1264;138814;-88
2024/01/27 08:33:32;;;;;;;13.00;3.50;;;;;;;4.88;100.00;101260.51;220988;1269;139644;-92
2024/01/27 08:38:33;;;;;;;24.60;3.20;;;;;;;4.92;100.00;101277.59;221338;1266;138828;-92
2024/01/27 08:43:33;;;;;;;17.50;3.40;;;;;;;4.96;100.00;101292.84;220740;1269;139221;-94
2024/01/27 08:48:34;;;;;;;19.10;3.60;;;;;;;5.00;100.00;101311.36;221712;1268;139413;-91
2024/01/27 08:53:35;;;;;;;19.40;3.80;;;;;;;5.05;100.00;101319.23;221276;1268;139534;-91
2024/01/27 08:58:35;;;;;;;19.20;3.40;;;;;;;5.08;100.00;101323.80;221946;1269;139306;-92
2024/01/27 09:03:36;;;;;;;19.20;3.40;;;;;;;5.08;100.00;101326.30;221649;1268;139789;-94
2024/01/27 09:08:36;;;;;;;22.20;4.70;;;;;;;5.13;100.00;101336.90;222221;1269;138554;-92
2024/01/27 09:13:37;;;;;;;24.30;4.20;;;;;;;5.18;100.00;101346.02;220837;1264;140964;-90
2024/01/27 09:18:38;;;;;;;19.70;3.90;;;;;;;5.22;100.00;101361.73;221328;1266;139795;-87
2024/01/27 09:23:38;;;;;;;13.70;3.50;;;;;;;5.26;100.00;101372.46;221267;1264;139714;-93
2024/01/27 09:28:43;;;;;;;16.10;4.00;;;;;;;5.29;100.00;101381.04;222057;1264;139033;-92
2024/01/27 09:33:43;;;;;;;15.30;3.30;;;;;;;5.31;100.00;101395.63;222001;1268;139477;-88
2024/01/27 09:38:44;;;;;;;22.10;3.40;;;;;;;5.36;100.00;101404.36;223267;1264;138492;-91
2024/01/27 09:43:45;;;;;;;17.90;4.20;;;;;;;5.40;100.00;101418.34;221782;1264;139562;-92
2024/01/27 09:48:46;;;;;;;24.10;6.00;;;;;;;5.45;100.00;101428.64;221405;1264;139172;-92
2024/01/27 09:53:46;;;;;;;23.80;4.60;;;;;;;5.50;100.00;101444.19;220880;1264;139254;-91
2024/01/27 09:58:49;;;;;;;19.90;3.70;;;;;;;5.57;100.00;101452.27;221737;1264;139967;-91
2024/01/27 10:03:51;;;;;;;27.50;4.60;;;;;;;5.66;100.00;101469.44;221403;1264;139614;-91
2024/01/27 10:08:54;;;;;;;16.30;4.30;;;;;;;5.72;100.00;101469.84;222032;1264;138486;-90
2024/01/27 10:13:59;;;;;;;15.60;3.80;;;;;;;5.80;100.00;101474.98;221348;1264;139407;-89
2024/01/27 10:19:01;;;;;;;13.10;3.20;;;;;;;5.85;100.00;101476.08;221734;1264;139224;-93
2024/01/27 10:24:05;;;;;;;16.30;3.90;;;;;;;5.93;100.00;101489.10;220599;1264;573770;-90
2024/01/27 10:29:06;;;;;;;13.80;3.70;;;;;;;6.00;100.00;101496.21;221713;1264;139090;-89
2024/01/27 10:34:14;;;;;;;18.40;4.30;;;;;;;6.07;100.00;101501.77;221168;1264;139198;-91
2024/01/27 10:39:22;;;;;;;21.40;4.40;;;;;;;6.10;100.00;101514.23;221266;1264;138994;-92
2024/01/27 10:44:23;;;;;;;17.50;4.30;;;;;;;6.17;100.00;101518.93;221369;1266;139771;-93
2024/01/27 10:49:34;;;;;;;26.00;5.70;;;;;;;6.26;100.00;101521.14;221647;1264;139246;-92
2024/01/27 10:55:00;;;;;;;23.60;3.80;;;;;;;6.31;100.00;101525.07;221046;1267;139217;-92
2024/01/27 11:00:06;;;;;;;18.90;4.10;;;;;;;6.38;100.00;101531.15;221311;1264;139837;-93
2024/01/27 11:05:07;;;;;;;20.80;5.20;;;;;;;6.46;100.00;101547.01;221659;1264;138813;-92
2024/01/27 11:10:08;;;;;;;17.50;3.40;;;;;;;6.52;100.00;101546.88;221458;1264;139899;-93
2024/01/27 11:15:09;;;;;;;22.00;3.20;;;;;;;6.58;100.00;101557.88;221787;1264;138578;-91
2024/01/27 11:20:11;;;;;;;13.60;3.30;;;;;;;6.67;100.00;101558.48;221086;1264;140460;-93
2024/01/27 11:25:11;;;;;;;18.70;3.80;;;;;;;6.73;100.00;101567.61;222219;1264;138817;-90
2024/01/27 11:30:33;;;;;;;14.20;3.60;;;;;;;6.79;100.00;101573.08;221738;1264;140910;-92
2024/01/27 11:35:34;;;;;;;20.20;3.90;;;;;;;6.83;100.00;101582.05;221745;1263;139791;-93
2024/01/27 11:40:44;;;;;;;16.30;3.50;;;;;;;6.91;100.00;101591.64;221114;1264;140261;-92
2024/01/27 11:45:58;;;;;;;20.80;5.20;;;;;;;6.91;100.00;101603.91;221316;1267;106843;-91
2024/01/27 11:51:11;;;;;;;18.80;4.40;;;;;;;6.90;100.00;101612.29;220670;1263;139961;-91
2024/01/27 11:56:11;;;;;;;17.10;4.90;;;;;;;6.87;100.00;101623.42;221595;1267;139260;-92
2024/01/27 12:01:12;;;;;;;19.60;4.00;;;;;;;6.90;100.00;101633.95;220916;1264;139749;-91
2024/01/27 12:06:12;;;;;;;18.90;3.50;;;;;;;6.92;100.00;101640.00;221450;1264;139402;-90
2024/01/27 12:11:14;;;;;;;15.40;3.40;;;;;;;6.87;100.00;101654.71;221623;1264;139494;-90
2024/01/27 12:16:15;;;;;;;22.50;4.30;;;;;;;6.89;100.00;101662.35;221475;1264;97647;-94
2024/01/27 12:21:19;;;;;;;18.40;2.90;;;;;;;6.89;100.00;101673.48;221016;1267;139608;-88
2024/01/27 12:26:25;;;;;;;16.50;3.30;;;;;;;6.82;99.83;101679.66;221487;1264;139126;-90
2024/01/27 12:31:26;;;;;;;14.20;2.50;;;;;;;6.75;99.72;101675.85;221006;1263;139328;-92
2024/01/27 12:36:27;;;;;;;14.70;2.80;;;;;;;6.71;99.72;101686.10;221448;1264;139314;-93
2024/01/27 12:41:29;;;;;;;19.80;4.90;;;;;;;6.68;100.00;101686.02;220908;1264;139869;-92
2024/01/27 12:46:30;;;;;;;18.40;3.50;;;;;;;6.66;99.85;101691.50;221231;1264;138744;-91
2024/01/27 12:51:30;;;;;;;21.40;4.00;;;;;;;6.64;99.90;101697.41;220772;1264;139189;-90
2024/01/27 12:56:31;;;;;;;21.50;3.40;;;;;;;6.62;100.00;101697.27;221313;1264;138319;-91
2024/01/27 13:01:33;;;;;;;17.50;3.50;;;;;;;6.60;100.00;101699.88;220889;1264;139886;-89
2024/01/27 13:06:33;;;;;;;13.80;2.80;;;;;;;6.59;100.00;101709.34;221530;1264;138751;-92
2024/01/27 13:11:34;;;;;;;17.20;3.20;;;;;;;6.60;100.00;101717.91;222479;1264;139706;-91
2024/01/27 13:16:34;;;;;;;14.70;2.70;;;;;;;6.61;100.00;101726.23;221731;1264;138656;-93
2024/01/27 13:21:35;;;;;;;18.30;3.40;;;;;;;6.60;100.00;101734.50;221195;1264;139548;-91
2024/01/27 13:26:38;;;;;;;15.40;3.20;;;;;;;6.58;99.83;101751.38;221629;1264;139413;-89
2024/01/27 13:31:39;;;;;;;16.40;3.20;;;;;;;6.55;99.89;101764.55;220883;1264;139386;-91
2024/01/27 13:36:39;;;;;;;19.50;3.40;;;;;;;6.53;100.00;101772.70;221193;1264;138665;-92
2024/01/27 13:41:40;;;;;;;17.30;3.50;;;;;;;6.54;100.00;101783.73;220641;1264;139552;-93
2024/01/27 13:46:40;;;;;;;16.00;3.60;;;;;;;6.50;100.00;101791.23;221420;1264;138612;-90
2024/01/27 13:51:41;;;;;;;23.80;3.90;;;;;;;6.49;100.00;101799.83;220976;1267;139925;-91
2024/01/27 13:56:41;;;;;;;25.30;5.20;;;;;;;6.49;100.00;101809.91;221614;1264;138445;-90
2024/01/27 14:01:42;;;;;;;20.30;4.20;;;;;;;6.50;100.00;101809.11;220848;1264;139967;-90
2024/01/27 14:06:42;;;;;;;18.40;3.50;;;;;;;6.53;100.00;101821.83;222045;1264;138606;-89
2024/01/27 14:11:43;;;;;;;18.40;4.10;;;;;;;6.53;100.00;101825.17;221676;1267;139858;-89
2024/01/27 14:16:47;;;;;;;18.00;3.60;;;;;;;6.55;100.00;101840.15;221827;1264;139341;-92
2024/01/27 14:21:47;;;;;;;17.10;3.20;;;;;;;6.53;100.00;101847.48;221352;1264;141201;-90
2024/01/27 14:26:49;;;;;;;22.10;6.20;;;;;;;6.50;100.00;101852.00;221422;1264;138699;-92
2024/01/27 14:31:49;;;;;;;19.00;4.60;;;;;;;6.46;100.00;101863.59;221026;1264;139714;-91
2024/01/27 14:36:50;;;;;;;15.10;3.60;;;;;;;6.43;100.00;101873.36;221843;1264;139084;-90
2024/01/27 14:41:50;;;;;;;15.90;3.80;;;;;;;6.38;100.00;101884.92;220830;1266;140069;-88
2024/01/27 14:46:51;;;;;;;17.50;4.00;;;;;;;6.32;100.00;101892.18;221677;1264;138695;-90
2024/01/27 14:51:51;;;;;;;16.40;3.60;;;;;;;6.28;100.00;101894.15;221290;1265;141276;-89
2024/01/27 14:56:51;;;;;;;19.70;3.40;;;;;;;6.23;100.00;101900.30;222584;1264;139238;-92
2024/01/27 15:01:52;;;;;;;21.90;4.40;;;;;;;6.17;100.00;101905.14;221227;1264;139831;-93
2024/01/27 15:06:57;;;;;;;15.00;4.60;;;;;;;6.11;100.00;101912.86;222145;1264;137529;-90
2024/01/27 15:11:57;;;;;;;17.30;5.20;;;;;;;6.04;100.00;101915.61;221729;1264;139754;-92
2024/01/27 15:17:01;;;;;;;17.10;4.30;;;;;;;5.94;100.00;101917.05;221682;1264;138850;-91
2024/01/27 15:22:02;;;;;;;12.50;3.90;;;;;;;5.84;100.00;101914.16;220973;1264;140716;-89
2024/01/27 15:27:03;;;;;;;19.90;4.00;;;;;;;5.76;100.00;101926.25;221326;1267;138564;-89
2024/01/27 15:32:04;;;;;;;19.10;3.90;;;;;;;5.69;100.00;101935.64;220779;1264;139748;-91
2024/01/27 15:37:05;;;;;;;16.50;3.40;;;;;;;5.63;100.00;101943.02;221216;1264;138645;-90
2024/01/27 15:42:07;;;;;;;18.00;4.80;;;;;;;5.57;100.00;101952.68;220789;1264;139565;-91
2024/01/27 15:47:08;;;;;;;18.30;4.70;;;;;;;5.51;100.00;101958.88;221021;1264;138686;-91
2024/01/27 15:52:08;;;;;;;18.50;4.30;;;;;;;5.46;100.00;101963.20;220575;1263;139872;-92
2024/01/27 15:57:09;;;;;;;20.40;4.10;;;;;;;5.41;100.00;101970.05;221407;1265;138420;-91
2024/01/27 16:02:09;;;;;;;16.80;4.00;;;;;;;5.38;100.00;101977.17;220931;1264;139686;-91
2024/01/27 16:07:10;;;;;;;21.00;5.50;;;;;;;5.33;100.00;101981.81;222416;1264;138874;-93
2024/01/27 16:12:11;;;;;;;18.50;4.70;;;;;;;5.29;100.00;101991.12;221007;1264;139161;-93
2024/01/27 16:17:11;;;;;;;27.40;10.40;;;;;;;5.23;100.00;101999.59;221373;1264;138639;-93
2024/01/27 16:22:12;;;;;;;14.60;3.40;;;;;;;5.16;100.00;102016.11;221112;1264;140113;-94
2024/01/27 16:27:13;;;;;;;16.70;3.20;;;;;;;5.09;100.00;102015.15;221291;1264;138455;-91
2024/01/27 16:32:17;;;;;;;15.20;5.60;;;;;;;5.03;100.00;102026.63;220798;1264;140315;-94
2024/01/27 16:37:19;;;;;;;20.60;5.70;;;;;;;4.95;100.00;102030.20;221497;1264;139030;-92
2024/01/27 16:42:20;;;;;;;22.50;4.70;;;;;;;4.87;100.00;102036.73;222001;1264;139620;-93
2024/01/27 16:47:21;;;;;;;23.70;5.10;;;;;;;4.81;100.00;102034.66;221613;1264;138850;-91
2024/01/27 16:52:21;;;;;;;22.50;5.80;;;;;;;4.74;100.00;102032.92;221604;1264;140165;-90
2024/01/27 16:57:22;;;;;;;20.70;4.10;;;;;;;4.75;100.00;102043.38;221862;1264;138499;-90
2024/01/27 17:02:23;;;;;;;18.20;4.20;;;;;;;4.76;100.00;102048.77;221239;1264;139812;-91
2024/01/27 17:07:24;;;;;;;24.00;5.40;;;;;;;4.77;100.00;102054.53;222029;1264;138742;-91
2024/01/27 17:12:24;;;;;;;21.20;5.80;;;;;;;4.79;100.00;102063.71;221747;1267;139479;-92
2024/01/27 17:17:25;;;;;;;25.00;5.60;;;;;;;4.81;100.00;102071.80;222263;1263;138702;-91
2024/01/27 17:22:26;;;;;;;23.80;5.70;;;;;;;4.86;100.00;102077.90;221571;1264;141258;-89
2024/01/27 17:27:26;;;;;;;25.20;7.20;;;;;;;4.89;100.00;102074.23;222774;1264;97649;-90
2024/01/27 17:32:27;;;;;;;19.90;6.30;;;;;;;4.92;100.00;102072.27;220291;1264;152499;-90
2024/01/27 17:37:27;;;;;;;27.60;6.10;;;;;;;4.94;100.00;102073.38;220899;1264;138676;-90
2024/01/27 17:42:28;;;;;;;21.50;6.90;;;;;;;4.98;100.00;102072.34;220369;1264;138594;-90
2024/01/27 17:47:30;;;;;;;26.80;6.50;;;;;;;5.01;100.00;102071.14;220989;1264;138640;-91
2024/01/27 17:52:30;;;;;;;30.20;9.70;;;;;;;5.05;100.00;102069.24;220227;1263;139535;-91
2024/01/27 17:57:31;;;;;;;47.10;16.90;;;;;;;5.09;100.00;102078.09;221028;1264;96555;-92
2024/01/27 18:02:31;;;;;;;50.20;15.70;;;;;;;5.13;100.00;102086.09;220390;1267;139718;-90
2024/01/27 18:07:33;;;;;;;35.40;8.00;;;;;;;5.16;100.00;102092.58;221348;1264;138787;-92
2024/01/27 18:12:36;;;;;;;26.40;7.00;;;;;;;5.17;100.00;102098.14;220681;1263;139585;-89
2024/01/27 18:17:36;;;;;;;29.10;6.70;;;;;;;5.19;100.00;102096.80;220949;1267;138590;-91
2024/01/27 18:22:37;;;;;;;22.60;6.40;;;;;;;5.20;100.00;102102.40;220749;1264;210557;-89
2024/01/27 18:27:42;;;;;;;26.40;6.70;;;;;;;5.21;100.00;102109.58;222489;1264;97504;-90
2024/01/27 18:32:42;;;;;;;29.40;7.50;;;;;;;5.22;100.00;102119.06;220605;1265;139794;-90
2024/01/27 18:37:43;;;;;;;22.10;6.00;;;;;;;5.21;100.00;102126.50;220951;1264;138777;-89
2024/01/27 18:42:43;;;;;;;27.10;7.00;;;;;;;5.21;100.00;102129.45;220584;1264;139916;-89
2024/01/27 18:47:44;;;;;;;26.30;7.10;;;;;;;5.21;100.00;102138.67;221093;1265;138670;-90
2024/01/27 18:52:49;;;;;;;24.40;6.10;;;;;;;5.22;100.00;102146.08;220377;1264;139962;-90
2024/01/27 18:57:50;;;;;;;24.00;6.60;;;;;;;5.24;100.00;102154.23;221048;1264;104945;-92
2024/01/27 19:02:51;;;;;;;27.20;6.50;;;;;;;5.26;100.00;102159.10;220383;1264;140278;-90
2024/01/27 19:07:52;;;;;;;23.80;6.80;;;;;;;5.30;100.00;102160.09;221541;1265;139157;-89
2024/01/27 19:12:52;;;;;;;28.30;7.10;;;;;;;5.32;100.00;102168.67;220780;1264;139772;-90
2024/01/27 19:17:53;;;;;;;27.10;8.00;;;;;;;5.34;100.00;102170.77;220937;1266;138826;-89
2024/01/27 19:22:54;;;;;;;54.20;25.50;;;;;;;5.35;100.00;102162.83;220337;1264;139703;-89
2024/01/27 19:27:54;;;;;;;30.90;9.00;;;;;;;5.37;100.00;102164.21;221214;1264;98278;-89
2024/01/27 19:32:54;;;;;;;38.00;13.00;;;;;;;5.37;100.00;102178.57;220321;1266;139714;-89
2024/01/27 19:37:55;;;;;;;33.00;8.60;;;;;;;5.38;100.00;102186.04;220940;1264;138652;-90
2024/01/27 19:42:55;;;;;;;33.20;10.80;;;;;;;5.40;100.00;102188.23;220343;1264;139860;-89
2024/01/27 19:47:57;;;;;;;23.40;8.90;;;;;;;5.41;100.00;102194.49;221053;1264;139493;-90
2024/01/27 19:52:58;;;;;;;32.30;10.00;;;;;;;5.42;100.00;102205.79;220356;1265;139560;-90
2024/01/27 19:57:58;;;;;;;23.90;6.10;;;;;;;5.45;100.00;102213.12;220976;1264;96630;-90
2024/01/27 20:03:00;;;;;;;17.00;5.50;;;;;;;5.46;100.00;102219.75;220477;1266;139583;-89
2024/01/27 20:08:01;;;;;;;21.40;6.30;;;;;;;5.47;100.00;102222.35;221723;1264;138538;-89
2024/01/27 20:13:04;;;;;;;25.60;6.90;;;;;;;5.49;100.00;102226.92;222537;1264;139891;-89
2024/01/27 20:18:04;;;;;;;25.50;8.30;;;;;;;5.50;100.00;102239.80;221592;1264;138808;-90
2024/01/27 20:23:05;;;;;;;25.70;6.60;;;;;;;5.54;100.00;102248.13;220363;1264;139855;-89
2024/01/27 20:28:05;;;;;;;29.60;8.80;;;;;;;5.55;100.00;102255.48;220959;1264;96951;-90
2024/01/27 20:33:07;;;;;;;29.80;13.70;;;;;;;5.57;100.00;102260.69;220194;1267;139856;-91
2024/01/27 20:38:08;;;;;;;22.40;7.80;;;;;;;5.58;100.00;102262.31;220793;1264;139207;-91
2024/01/27 20:43:09;;;;;;;34.20;12.90;;;;;;;5.60;100.00;102259.70;219965;1264;139784;-90
2024/01/27 20:48:13;;;;;;;23.70;11.00;;;;;;;5.62;100.00;102268.41;220692;1264;138913;-90
2024/01/27 20:53:14;;;;;;;23.70;8.40;;;;;;;5.63;100.00;102277.89;220118;1266;139764;-91
2024/01/27 20:58:14;;;;;;;22.50;7.90;;;;;;;5.65;100.00;102283.77;220799;1264;97679;-91
2024/01/27 21:03:16;;;;;;;24.80;8.80;;;;;;;5.67;100.00;102277.45;220229;1267;139306;-91
2024/01/27 21:08:16;;;;;;;43.20;17.50;;;;;;;5.68;100.00;102279.73;220999;1264;138492;-88
2024/01/27 21:13:18;;;;;;;25.20;6.60;;;;;;;5.68;100.00;102281.60;221284;1264;139958;-89
2024/01/27 21:18:19;;;;;;;28.30;6.50;;;;;;;5.66;100.00;102288.34;220753;1264;139457;-90
2024/01/27 21:23:19;;;;;;;22.50;6.30;;;;;;;5.66;100.00;102285.12;220376;1264;139489;-90
2024/01/27 21:28:20;;;;;;;29.20;10.50;;;;;;;5.68;100.00;102287.71;221166;1267;97584;-89
2024/01/27 21:33:20;;;;;;;22.60;5.60;;;;;;;5.69;100.00;102289.55;220142;1266;139592;-90
2024/01/27 21:38:21;;;;;;;26.50;6.90;;;;;;;5.68;100.00;102289.22;220867;1266;138416;-90
2024/01/27 21:43:22;;;;;;;21.00;4.70;;;;;;;5.67;100.00;102298.65;220132;1264;139465;-89
2024/01/27 21:48:22;;;;;;;13.50;3.90;;;;;;;5.66;100.00;102309.16;220864;1266;138787;-90
2024/01/27 21:53:23;;;;;;;18.60;3.50;;;;;;;5.68;100.00;102316.45;220210;1266;139719;-90
2024/01/27 21:58:24;;;;;;;20.20;4.50;;;;;;;5.68;100.00;102318.38;222058;1265;104831;-90
2024/01/27 22:03:24;;;;;;;13.60;4.20;;;;;;;5.67;100.00;102324.88;221180;1265;139713;-90
2024/01/27 22:08:25;;;;;;;13.10;4.30;;;;;;;5.67;100.00;102335.98;220692;1266;139258;-90
2024/01/27 22:13:25;;;;;;;17.90;4.80;;;;;;;5.68;100.00;102337.37;221892;1265;138384;-87
2024/01/27 22:18:26;;;;;;;20.40;5.50;;;;;;;5.68;100.00;102343.83;220583;1264;138643;-88
2024/01/27 22:23:26;;;;;;;21.20;5.90;;;;;;;5.68;100.00;102345.14;220116;1266;274716;-89
2024/01/27 22:28:26;;;;;;;20.70;5.90;;;;;;;5.66;100.00;102351.29;220640;1266;138623;-88
2024/01/27 22:33:27;;;;;;;23.60;6.20;;;;;;;5.65;100.00;102354.80;220310;1264;140157;-88